Nelspruit, South Africa
Current Conditions -  °F | °C
As of 8:53 AM on Monday 24 Nov 2014 (Local Time) from FAKN Reporting Station
NA  
Wind Chill: 77°   Ceiling: NA
Heat Index: 79°   Visibility: NA
Dew Point: 59°   Wind: 3mph
Humidity: 54%   Direction: 260°W
Pressure: 30.06"   Gusts: NA
Location:  25.47°S, 30.99°E
Report Text: FAKN 240653Z AUTO 26003KT //// // ////// 25/15 Q1018
Loading
Personal Weather Stations






























Interactive Weather Map New forecast layout! Learn more

10-Day Weather Forecast

Advertisements
Track Severe Weather on mobile